createdAt,value
2019-03-17T00:00:11.417Z,0.00
2019-03-17T00:01:12.314Z,0.00
2019-03-17T00:02:11.334Z,0.00
2019-03-17T00:03:11.296Z,0.00
2019-03-17T00:04:11.261Z,0.00
2019-03-17T00:05:11.228Z,0.00
2019-03-17T00:06:11.183Z,0.00
2019-03-17T00:07:11.141Z,0.00
2019-03-17T00:08:11.098Z,0.00
2019-03-17T00:09:11.054Z,0.00
2019-03-17T00:10:11.016Z,0.00
2019-03-17T00:11:10.979Z,0.00
2019-03-17T00:12:10.940Z,0.00
2019-03-17T00:13:10.906Z,0.00
2019-03-17T00:14:10.862Z,0.00
2019-03-17T00:15:10.821Z,0.00
2019-03-17T00:16:10.779Z,0.00
2019-03-17T00:17:10.797Z,0.00
2019-03-17T00:18:10.703Z,0.00
2019-03-17T00:19:10.664Z,0.00
2019-03-17T00:20:10.622Z,0.00
2019-03-17T00:21:10.581Z,0.00
2019-03-17T00:22:10.541Z,0.00
2019-03-17T00:23:10.502Z,0.00
2019-03-17T00:24:10.463Z,0.00
2019-03-17T00:25:10.472Z,0.00
2019-03-17T00:26:10.387Z,0.00
2019-03-17T00:27:10.344Z,0.00
2019-03-17T00:28:10.301Z,0.00
2019-03-17T00:29:10.261Z,0.00
2019-03-17T00:30:10.219Z,0.00
2019-03-17T00:31:10.181Z,0.00
2019-03-17T00:32:10.163Z,0.00
2019-03-17T00:33:10.106Z,0.00
2019-03-17T00:34:10.060Z,0.00
2019-03-17T00:35:10.066Z,0.00
2019-03-17T00:36:09.985Z,0.00
2019-03-17T00:37:09.946Z,0.00
2019-03-17T00:38:09.907Z,0.00
2019-03-17T00:39:09.867Z,0.00
2019-03-17T00:40:09.823Z,0.00
2019-03-17T00:41:09.781Z,0.00
2019-03-17T00:42:09.748Z,0.00
2019-03-17T00:43:09.708Z,0.00
2019-03-17T00:44:09.664Z,0.00
2019-03-17T00:45:11.533Z,0.00
2019-03-17T00:46:09.587Z,0.00
2019-03-17T00:47:10.723Z,0.00
2019-03-17T00:48:09.511Z,0.00
2019-03-17T00:49:09.469Z,0.00
2019-03-17T00:50:09.426Z,0.00
2019-03-17T00:51:09.387Z,0.00
2019-03-17T00:52:09.350Z,0.00
2019-03-17T00:53:09.308Z,0.00
2019-03-17T00:54:09.269Z,0.00
2019-03-17T00:55:09.231Z,0.00
2019-03-17T00:56:09.186Z,0.00
2019-03-17T00:57:09.149Z,0.00
2019-03-17T00:58:09.111Z,0.00
2019-03-17T00:59:09.067Z,0.00
2019-03-17T01:00:09.033Z,0.00
2019-03-17T01:01:08.991Z,0.00
2019-03-17T01:02:08.951Z,0.00
2019-03-17T01:03:08.914Z,0.00
2019-03-17T01:04:08.869Z,0.00
2019-03-17T01:05:08.829Z,0.00
2019-03-17T01:06:08.793Z,0.00
2019-03-17T01:07:08.758Z,0.00
2019-03-17T01:08:08.710Z,0.00
2019-03-17T01:09:08.669Z,0.00
2019-03-17T01:10:08.630Z,0.00
2019-03-17T01:11:08.588Z,0.00
2019-03-17T01:12:08.566Z,0.00
2019-03-17T01:13:08.513Z,0.00
2019-03-17T01:14:08.475Z,0.00
2019-03-17T01:15:08.438Z,0.00
2019-03-17T01:16:08.391Z,0.00
2019-03-17T01:17:08.350Z,0.00
2019-03-17T01:18:08.321Z,0.00
2019-03-17T01:19:08.269Z,0.00
2019-03-17T01:20:08.236Z,0.00
2019-03-17T01:21:08.193Z,0.00
2019-03-17T01:22:08.157Z,0.00
2019-03-17T01:23:08.113Z,0.00
2019-03-17T01:24:10.240Z,0.00
2019-03-17T01:25:08.037Z,0.00
2019-03-17T01:26:08.012Z,0.00
2019-03-17T01:27:07.959Z,0.00
2019-03-17T01:28:07.911Z,0.00
2019-03-17T01:29:07.873Z,0.00
2019-03-17T01:30:07.832Z,0.00
2019-03-17T01:31:07.796Z,0.00
2019-03-17T01:32:07.759Z,0.00
2019-03-17T01:33:07.716Z,0.00
2019-03-17T01:34:07.677Z,0.00
2019-03-17T01:35:09.478Z,0.00
2019-03-17T01:36:07.591Z,0.00
2019-03-17T01:37:07.558Z,0.00
2019-03-17T01:38:07.520Z,0.00
2019-03-17T01:39:07.479Z,0.00
2019-03-17T01:40:07.433Z,0.00
2019-03-17T01:41:07.397Z,0.00
2019-03-17T01:42:07.355Z,0.00
2019-03-17T01:43:07.313Z,0.00
2019-03-17T01:44:07.279Z,0.00
2019-03-17T01:45:07.238Z,0.00
2019-03-17T01:46:07.206Z,0.00
2019-03-17T01:47:07.160Z,0.00
2019-03-17T01:48:07.112Z,0.00
2019-03-17T01:49:07.074Z,0.00
2019-03-17T01:50:07.034Z,0.00
2019-03-17T01:51:06.995Z,0.00
2019-03-17T01:52:06.960Z,0.00
2019-03-17T01:53:07.001Z,0.00
2019-03-17T01:54:06.882Z,0.00
2019-03-17T01:55:06.833Z,0.00
2019-03-17T01:56:06.800Z,0.00
2019-03-17T01:57:06.765Z,0.00
2019-03-17T01:58:06.717Z,0.00
2019-03-17T01:59:06.679Z,0.00
2019-03-17T02:00:06.698Z,0.00
2019-03-17T02:01:06.598Z,0.00
2019-03-17T02:02:06.558Z,0.00
2019-03-17T02:03:06.520Z,0.00
2019-03-17T02:04:06.479Z,0.00
2019-03-17T02:05:06.440Z,0.00
2019-03-17T02:06:06.397Z,0.00
2019-03-17T02:07:06.359Z,0.00
2019-03-17T02:08:06.313Z,0.00
2019-03-17T02:09:06.274Z,0.00
2019-03-17T02:10:06.239Z,0.00
2019-03-17T02:11:06.201Z,0.00
2019-03-17T02:12:06.158Z,0.00
2019-03-17T02:13:06.116Z,0.00
2019-03-17T02:14:06.076Z,0.00
2019-03-17T02:15:06.036Z,0.00
2019-03-17T02:16:06.001Z,0.00
2019-03-17T02:17:05.958Z,0.00
2019-03-17T02:18:05.916Z,0.00
2019-03-17T02:19:05.879Z,0.00
2019-03-17T02:20:05.852Z,0.00
2019-03-17T02:21:05.796Z,0.00
2019-03-17T02:22:05.758Z,0.00
2019-03-17T02:23:05.718Z,0.00
2019-03-17T02:24:05.678Z,0.00
2019-03-17T02:25:05.652Z,0.00
2019-03-17T02:26:05.596Z,0.00
2019-03-17T02:27:05.555Z,0.00
2019-03-17T02:28:05.519Z,0.00
2019-03-17T02:29:05.476Z,0.00
2019-03-17T02:30:05.465Z,0.00
2019-03-17T02:31:05.399Z,0.00
2019-03-17T02:32:05.356Z,0.00
2019-03-17T02:33:05.316Z,0.00
2019-03-17T02:34:05.274Z,0.00
2019-03-17T02:35:05.233Z,0.00
2019-03-17T02:36:05.202Z,0.00
2019-03-17T02:37:05.157Z,0.00
2019-03-17T02:38:05.122Z,0.00
2019-03-17T02:39:05.079Z,0.00
2019-03-17T02:40:05.036Z,0.00
2019-03-17T02:41:04.998Z,0.00
2019-03-17T02:42:04.959Z,0.00
2019-03-17T02:43:04.924Z,0.00
2019-03-17T02:44:04.873Z,0.00
2019-03-17T02:45:04.838Z,0.00
2019-03-17T02:46:04.804Z,0.00
2019-03-17T02:47:04.769Z,0.00
2019-03-17T02:48:04.729Z,0.00
2019-03-17T02:49:04.678Z,0.00
2019-03-17T02:50:04.701Z,0.00
2019-03-17T02:51:04.600Z,0.00
2019-03-17T02:52:04.555Z,0.00
2019-03-17T02:53:04.513Z,0.00
2019-03-17T02:54:04.476Z,0.00
2019-03-17T02:55:04.435Z,0.00
2019-03-17T02:56:04.398Z,0.00
2019-03-17T02:57:04.355Z,0.00
2019-03-17T02:58:04.315Z,0.00
2019-03-17T02:59:04.270Z,0.00
2019-03-17T03:00:04.238Z,0.00
2019-03-17T03:01:04.198Z,0.00
2019-03-17T03:02:04.157Z,0.00
2019-03-17T03:03:04.125Z,0.00
2019-03-17T03:04:04.070Z,0.00
2019-03-17T03:05:04.036Z,0.00
2019-03-17T03:06:03.994Z,0.00
2019-03-17T03:07:03.951Z,0.00
2019-03-17T03:08:03.920Z,0.00
2019-03-17T03:09:03.872Z,0.00
2019-03-17T03:10:03.833Z,0.00
2019-03-17T03:11:03.798Z,0.00
2019-03-17T03:12:03.751Z,0.00
2019-03-17T03:13:03.709Z,0.00
2019-03-17T03:14:03.672Z,0.00
2019-03-17T03:15:03.634Z,0.00
2019-03-17T03:16:05.772Z,0.00
2019-03-17T03:17:03.555Z,0.00
2019-03-17T03:18:03.511Z,0.00
2019-03-17T03:19:03.471Z,0.00
2019-03-17T03:20:03.441Z,0.00
2019-03-17T03:21:03.401Z,0.00
2019-03-17T03:22:03.352Z,0.00
2019-03-17T03:23:03.314Z,0.00
2019-03-17T03:24:03.267Z,0.00
2019-03-17T03:25:03.234Z,0.00
2019-03-17T03:26:03.199Z,0.00
2019-03-17T03:27:03.149Z,0.00
2019-03-17T03:28:03.147Z,0.00
2019-03-17T03:29:03.075Z,0.00
2019-03-17T03:30:03.030Z,0.00
2019-03-17T03:31:03.000Z,0.00
2019-03-17T03:44:40.109Z,0.00
2019-03-17T03:45:40.032Z,0.00
2019-03-17T03:46:39.991Z,0.00
2019-03-17T03:47:39.951Z,0.00
2019-03-17T03:48:39.907Z,0.00
2019-03-17T03:49:39.861Z,0.00
2019-03-17T03:50:39.818Z,0.00
2019-03-17T03:51:39.774Z,0.00
2019-03-17T03:52:39.748Z,0.00
2019-03-17T03:53:39.696Z,0.00
2019-03-17T03:54:39.650Z,0.00
2019-03-17T03:55:42.102Z,0.00
2019-03-17T03:56:39.562Z,0.00
2019-03-17T03:57:39.527Z,0.00
2019-03-17T03:58:39.484Z,0.00
2019-03-17T03:59:39.447Z,0.00
2019-03-17T04:00:39.407Z,0.00
2019-03-17T04:01:39.362Z,0.00
2019-03-17T04:02:39.319Z,0.00
2019-03-17T04:03:39.278Z,0.00
2019-03-17T04:04:39.235Z,0.00
2019-03-17T04:05:39.200Z,0.00
2019-03-17T04:06:39.157Z,0.00
2019-03-17T04:07:39.120Z,0.00
2019-03-17T04:08:39.074Z,0.00
2019-03-17T04:09:39.032Z,0.00
2019-03-17T04:10:38.995Z,0.00
2019-03-17T04:11:38.961Z,0.00
2019-03-17T04:12:38.917Z,0.00
2019-03-17T04:13:38.873Z,0.00
2019-03-17T04:14:38.862Z,0.00
2019-03-17T04:15:38.794Z,0.00
2019-03-17T04:16:38.747Z,0.00
2019-03-17T04:17:38.708Z,0.00
2019-03-17T04:18:38.671Z,0.00
2019-03-17T04:19:38.633Z,0.00
2019-03-17T04:20:38.593Z,0.00
2019-03-17T04:21:38.553Z,0.00
2019-03-17T04:22:38.507Z,0.00
2019-03-17T04:23:38.467Z,0.00
2019-03-17T04:24:38.431Z,0.00
2019-03-17T04:25:38.389Z,0.00
2019-03-17T04:26:38.347Z,0.00
2019-03-17T04:27:38.304Z,0.00
2019-03-17T04:28:38.264Z,0.00
2019-03-17T04:29:38.228Z,0.00
2019-03-17T04:30:38.189Z,0.00
2019-03-17T04:31:38.155Z,0.00
2019-03-17T04:32:38.108Z,0.00
2019-03-17T04:33:38.065Z,0.00
2019-03-17T04:34:38.031Z,0.00
2019-03-17T04:35:37.982Z,0.00
2019-03-17T04:36:40.423Z,0.00
2019-03-17T04:37:37.905Z,0.00
2019-03-17T04:38:37.895Z,0.00
2019-03-17T04:39:37.830Z,0.00
2019-03-17T04:40:37.781Z,0.00
2019-03-17T04:41:37.742Z,0.00
2019-03-17T04:42:37.708Z,0.00
2019-03-17T04:43:37.667Z,0.00
2019-03-17T04:44:37.625Z,0.00
2019-03-17T04:45:37.584Z,0.00
2019-03-17T04:46:37.541Z,0.00
2019-03-17T04:47:37.500Z,0.00
2019-03-17T04:48:37.482Z,0.00
2019-03-17T04:49:37.421Z,0.00
2019-03-17T04:50:37.385Z,0.00
2019-03-17T04:51:37.351Z,0.00
2019-03-17T04:52:37.304Z,0.00
2019-03-17T04:53:37.264Z,0.00
2019-03-17T04:54:37.219Z,0.00
2019-03-17T04:55:37.177Z,0.00
2019-03-17T04:56:37.143Z,0.00
2019-03-17T04:57:37.101Z,0.00
2019-03-17T04:58:37.061Z,0.00
2019-03-17T04:59:37.022Z,0.00
2019-03-17T05:00:36.978Z,0.00
2019-03-17T05:01:36.937Z,0.00
2019-03-17T05:02:36.900Z,0.00
2019-03-17T05:03:36.863Z,0.00
2019-03-17T05:04:36.821Z,0.00
2019-03-17T05:05:36.781Z,0.00
2019-03-17T05:06:36.738Z,0.00
2019-03-17T05:07:36.696Z,0.00
2019-03-17T05:08:36.654Z,0.00
2019-03-17T05:09:36.616Z,0.00
2019-03-17T05:10:36.580Z,0.00
2019-03-17T05:11:36.540Z,0.00
2019-03-17T05:12:36.494Z,0.00
2019-03-17T05:13:36.472Z,0.00
2019-03-17T05:14:36.417Z,0.00
2019-03-17T05:15:36.382Z,0.00
2019-03-17T05:16:36.341Z,0.00
2019-03-17T05:17:36.299Z,0.00
2019-03-17T05:18:36.257Z,0.00
2019-03-17T05:19:36.217Z,0.00
2019-03-17T05:20:36.175Z,0.00
2019-03-17T05:21:36.136Z,0.00
2019-03-17T05:22:36.097Z,0.00
2019-03-17T05:23:36.063Z,0.00
2019-03-17T05:24:36.027Z,0.00
2019-03-17T05:25:35.988Z,0.00
2019-03-17T05:26:35.934Z,0.00
2019-03-17T05:27:35.896Z,0.00
2019-03-17T05:28:35.858Z,0.00
2019-03-17T05:29:35.815Z,0.00
2019-03-17T05:30:35.773Z,0.00
2019-03-17T05:31:35.733Z,0.00
2019-03-17T05:32:35.690Z,0.00
2019-03-17T05:33:35.662Z,0.00
2019-03-17T05:34:35.614Z,0.00
2019-03-17T05:35:35.585Z,0.00
2019-03-17T05:36:35.534Z,0.00
2019-03-17T05:37:35.496Z,0.00
2019-03-17T05:38:35.451Z,0.00
2019-03-17T05:39:35.412Z,0.00
2019-03-17T05:40:35.367Z,0.00
2019-03-17T05:41:35.333Z,0.00
2019-03-17T05:42:35.294Z,0.00
2019-03-17T05:43:35.257Z,0.00
2019-03-17T05:44:35.208Z,5.63
2019-03-17T05:45:35.170Z,5.63
2019-03-17T05:46:35.132Z,5.63
2019-03-17T05:47:35.095Z,11.25
2019-03-17T05:48:35.053Z,11.25
2019-03-17T05:49:35.010Z,11.25
2019-03-17T05:50:34.969Z,11.25
2019-03-17T05:51:34.927Z,5.63
2019-03-17T05:52:34.884Z,5.63
2019-03-17T05:53:34.849Z,5.63
2019-03-17T05:54:34.808Z,5.63
2019-03-17T05:55:34.770Z,5.63
2019-03-17T05:56:34.731Z,11.25
2019-03-17T05:57:34.690Z,11.25
2019-03-17T05:58:34.648Z,11.25
2019-03-17T05:59:34.602Z,11.25
2019-03-17T06:00:34.568Z,16.88
2019-03-17T06:01:34.524Z,16.88
2019-03-17T06:02:34.485Z,16.88
2019-03-17T06:03:34.441Z,16.88
2019-03-17T06:04:34.401Z,16.88
2019-03-17T06:05:34.361Z,16.88
2019-03-17T06:06:34.327Z,16.88
2019-03-17T06:07:34.284Z,16.88
2019-03-17T06:08:34.243Z,16.88
2019-03-17T06:09:34.261Z,16.88
2019-03-17T06:10:34.218Z,16.88
2019-03-17T06:11:34.115Z,16.88
2019-03-17T06:12:34.076Z,22.50
2019-03-17T06:13:34.038Z,22.50
2019-03-17T06:14:34.000Z,22.50
2019-03-17T06:15:33.984Z,22.50
2019-03-17T06:16:33.913Z,22.50
2019-03-17T06:17:33.877Z,22.50
2019-03-17T06:18:33.839Z,22.50
2019-03-17T06:19:33.802Z,22.50
2019-03-17T06:20:33.761Z,22.50
2019-03-17T06:21:33.718Z,22.50
2019-03-17T06:22:33.675Z,22.50
2019-03-17T06:23:33.707Z,22.50
2019-03-17T06:24:33.592Z,28.13
2019-03-17T06:25:33.606Z,28.13
2019-03-17T06:26:33.514Z,28.13
2019-03-17T06:27:33.476Z,22.50
2019-03-17T06:28:33.437Z,28.13
2019-03-17T06:29:33.392Z,28.13
2019-03-17T06:30:33.350Z,28.13
2019-03-17T06:31:33.311Z,28.13
2019-03-17T06:32:33.273Z,33.75
2019-03-17T06:33:33.231Z,33.75
2019-03-17T06:34:33.190Z,33.75
2019-03-17T06:35:33.147Z,28.13
2019-03-17T06:36:33.106Z,28.13
2019-03-17T06:37:33.067Z,28.13
2019-03-17T06:38:33.030Z,28.13
2019-03-17T06:39:33.001Z,28.13
2019-03-17T06:40:32.949Z,28.13
2019-03-17T06:41:32.909Z,28.13
2019-03-17T06:42:32.864Z,28.13
2019-03-17T06:43:32.825Z,28.13
2019-03-17T06:44:32.782Z,28.13
2019-03-17T06:45:32.742Z,28.13
2019-03-17T06:46:32.708Z,28.13
2019-03-17T06:47:32.672Z,28.13
2019-03-17T06:48:32.622Z,28.13
2019-03-17T06:49:32.584Z,33.75
2019-03-17T06:50:32.544Z,33.75
2019-03-17T06:51:32.508Z,33.75
2019-03-17T06:52:32.466Z,39.38
2019-03-17T06:53:32.423Z,39.38
2019-03-17T06:54:32.435Z,39.38
2019-03-17T06:55:32.339Z,39.38
2019-03-17T06:56:32.297Z,39.38
2019-03-17T06:57:32.259Z,39.38
2019-03-17T06:58:32.235Z,39.38
2019-03-17T06:59:32.183Z,39.38
2019-03-17T07:00:32.145Z,39.38
2019-03-17T07:01:32.106Z,39.38
2019-03-17T07:02:32.093Z,39.38
2019-03-17T07:03:32.027Z,39.38
2019-03-17T07:04:31.990Z,39.38
2019-03-17T07:05:31.940Z,39.38
2019-03-17T07:06:31.897Z,45.00
2019-03-17T07:07:43.211Z,45.00
2019-03-17T07:08:31.813Z,45.00
2019-03-17T07:09:31.775Z,45.00
2019-03-17T07:10:31.738Z,39.38
2019-03-17T07:11:31.700Z,45.00
2019-03-17T07:12:31.658Z,45.00
2019-03-17T07:13:31.615Z,45.00
2019-03-17T07:14:31.572Z,45.00
2019-03-17T07:15:31.531Z,50.63
2019-03-17T07:16:31.490Z,50.63
2019-03-17T07:17:31.452Z,50.63
2019-03-17T07:18:31.412Z,50.63
2019-03-17T07:19:31.374Z,50.63
2019-03-17T07:20:31.329Z,50.63
2019-03-17T07:21:31.289Z,50.63
2019-03-17T07:22:31.251Z,50.63
2019-03-17T07:23:34.086Z,50.63
2019-03-17T07:24:31.172Z,50.63
2019-03-17T07:25:31.132Z,56.25
2019-03-17T07:26:31.088Z,56.25
2019-03-17T07:27:31.045Z,56.25
2019-03-17T07:28:31.005Z,56.25
2019-03-17T07:29:30.968Z,56.25
2019-03-17T07:30:30.928Z,56.25
2019-03-17T07:31:30.937Z,56.25
2019-03-17T07:32:30.892Z,56.25
2019-03-17T07:33:39.452Z,56.25
2019-03-17T07:35:35.228Z,61.88
2019-03-17T07:36:35.162Z,61.88
2019-03-17T07:37:35.145Z,67.50
2019-03-17T07:38:35.082Z,67.50
2019-03-17T07:39:35.039Z,67.50
2019-03-17T07:40:35.003Z,67.50
2019-03-17T07:41:34.959Z,73.13
2019-03-17T07:42:34.920Z,73.13
2019-03-17T07:43:34.883Z,73.13
2019-03-17T07:44:34.834Z,73.13
2019-03-17T07:45:34.796Z,73.13
2019-03-17T07:46:34.758Z,67.50
2019-03-17T07:47:35.716Z,67.50
2019-03-17T07:48:34.679Z,61.88
2019-03-17T07:49:34.637Z,56.25
2019-03-17T07:50:34.606Z,56.25
2019-03-17T07:51:34.554Z,50.63
2019-03-17T07:52:34.520Z,50.63
2019-03-17T07:53:34.476Z,45.00
2019-03-17T07:54:35.189Z,39.38
2019-03-17T07:55:34.396Z,33.75
2019-03-17T07:56:34.352Z,33.75
2019-03-17T07:57:34.312Z,28.13
2019-03-17T07:58:34.270Z,28.13
2019-03-17T07:59:34.230Z,22.50
2019-03-17T08:00:34.193Z,22.50
2019-03-17T08:01:34.155Z,22.50
2019-03-17T08:02:34.115Z,22.50
2019-03-17T08:03:34.071Z,22.50
2019-03-17T08:04:42.329Z,28.13
2019-03-17T08:05:33.987Z,28.13
2019-03-17T08:06:33.954Z,39.38
2019-03-17T08:07:33.909Z,45.00
2019-03-17T08:08:33.871Z,45.00
2019-03-17T08:09:33.825Z,45.00
2019-03-17T08:10:33.784Z,50.63
2019-03-17T08:11:33.745Z,45.00
2019-03-17T08:12:33.709Z,45.00
2019-03-17T08:13:33.668Z,45.00
2019-03-17T08:14:33.625Z,45.00
2019-03-17T08:15:33.592Z,50.63
2019-03-17T08:16:33.541Z,50.63
2019-03-17T08:17:33.542Z,56.25
2019-03-17T08:18:33.465Z,61.88
2019-03-17T08:19:33.418Z,67.50
2019-03-17T08:20:33.379Z,67.50
2019-03-17T08:21:33.339Z,73.13
2019-03-17T08:22:33.292Z,78.75
2019-03-17T08:23:33.251Z,84.38
2019-03-17T08:24:33.212Z,84.38
2019-03-17T08:25:33.224Z,95.63
2019-03-17T08:26:33.135Z,106.88
2019-03-17T08:27:33.091Z,106.88
2019-03-17T08:28:33.045Z,106.88
2019-03-17T08:29:33.003Z,101.25
2019-03-17T08:30:32.961Z,95.63
2019-03-17T08:31:32.922Z,90.00
2019-03-17T08:32:32.882Z,90.00
2019-03-17T08:33:32.846Z,90.00
2019-03-17T08:34:32.801Z,90.00
2019-03-17T08:35:32.757Z,90.00
2019-03-17T08:36:32.715Z,90.00
2019-03-17T08:37:32.672Z,90.00
2019-03-17T08:38:32.652Z,90.00
2019-03-17T08:39:32.596Z,95.63
2019-03-17T08:40:32.573Z,101.25
2019-03-17T08:41:32.508Z,95.63
2019-03-17T08:42:32.468Z,101.25
2019-03-17T08:43:32.427Z,106.88
2019-03-17T08:44:32.388Z,106.88
2019-03-17T08:45:32.349Z,106.88
2019-03-17T08:46:32.308Z,106.88
2019-03-17T08:47:32.264Z,112.50
2019-03-17T08:48:32.221Z,112.50
2019-03-17T08:49:32.178Z,123.75
2019-03-17T08:50:32.155Z,123.75
2019-03-17T08:51:32.130Z,129.38
2019-03-17T08:52:34.280Z,129.38
2019-03-17T08:53:32.025Z,129.38
2019-03-17T08:54:31.980Z,129.38
2019-03-17T08:55:31.933Z,129.38
2019-03-17T08:56:31.895Z,129.38
2019-03-17T08:57:31.856Z,135.00
2019-03-17T08:58:31.852Z,135.00
2019-03-17T08:59:31.772Z,140.63
2019-03-17T09:00:31.729Z,135.00
2019-03-17T09:01:31.687Z,140.63
2019-03-17T09:02:31.646Z,135.00
2019-03-17T09:03:31.606Z,135.00
2019-03-17T09:04:31.571Z,135.00
2019-03-17T09:05:31.531Z,140.63
2019-03-17T09:06:31.487Z,151.88
2019-03-17T09:07:31.446Z,151.88
2019-03-17T09:08:35.272Z,163.13
2019-03-17T09:09:31.359Z,157.50
2019-03-17T09:10:31.323Z,157.50
2019-03-17T09:11:31.280Z,146.25
2019-03-17T09:12:31.248Z,135.00
2019-03-17T09:13:31.197Z,123.75
2019-03-17T09:14:31.162Z,118.13
2019-03-17T09:15:31.118Z,123.75
2019-03-17T09:16:31.078Z,123.75
2019-03-17T09:17:31.051Z,129.38
2019-03-17T09:18:30.998Z,129.38
2019-03-17T09:19:30.958Z,129.38
2019-03-17T09:20:30.916Z,118.13
2019-03-17T09:21:30.875Z,112.50
2019-03-17T09:22:30.836Z,112.50
2019-03-17T09:23:30.802Z,112.50
2019-03-17T09:24:30.774Z,118.13
2019-03-17T09:25:30.716Z,118.13
2019-03-17T09:26:30.676Z,118.13
2019-03-17T09:27:30.629Z,118.13
2019-03-17T09:28:30.589Z,118.13
2019-03-17T09:29:30.555Z,118.13
2019-03-17T09:30:30.510Z,118.13
2019-03-17T09:31:30.466Z,123.75
2019-03-17T09:32:30.428Z,123.75
2019-03-17T09:33:30.382Z,129.38
2019-03-17T09:34:30.342Z,135.00
2019-03-17T09:35:30.306Z,140.63
2019-03-17T09:36:32.332Z,151.88
2019-03-17T09:37:30.280Z,163.13
2019-03-17T09:38:30.186Z,168.75
2019-03-17T09:39:30.141Z,168.75
2019-03-17T09:40:30.100Z,180.00
2019-03-17T09:41:30.057Z,185.63
2019-03-17T09:42:30.045Z,185.63
2019-03-17T09:43:29.980Z,185.63
2019-03-17T09:44:29.935Z,185.63
2019-03-17T09:57:47.737Z,191.25
2019-03-17T09:58:47.673Z,185.63
2019-03-17T09:59:47.604Z,185.63
2019-03-17T10:00:47.566Z,191.25
2019-03-17T10:01:47.585Z,191.25
2019-03-17T10:02:47.522Z,202.50
2019-03-17T10:03:47.426Z,208.13
2019-03-17T10:04:47.456Z,213.75
2019-03-17T10:05:49.405Z,213.75
2019-03-17T10:06:47.301Z,219.38
2019-03-17T10:07:47.260Z,213.75
2019-03-17T10:08:59.018Z,219.38
2019-03-17T10:09:47.184Z,213.75
2019-03-17T10:10:47.174Z,225.00
2019-03-17T10:11:47.097Z,219.38
2019-03-17T10:12:47.054Z,219.38
2019-03-17T10:13:47.009Z,213.75
2019-03-17T10:14:46.967Z,225.00
2019-03-17T10:15:46.929Z,219.38
2019-03-17T10:16:46.892Z,208.13
2019-03-17T10:17:46.853Z,196.88
2019-03-17T10:18:46.810Z,191.25
2019-03-17T10:19:46.768Z,185.63
2019-03-17T10:20:46.725Z,185.63
2019-03-17T10:21:46.684Z,191.25
2019-03-17T10:22:46.648Z,185.63
2019-03-17T10:23:46.606Z,196.88
2019-03-17T10:24:46.563Z,191.25
2019-03-17T10:25:46.522Z,191.25
2019-03-17T10:26:46.484Z,191.25
2019-03-17T10:27:46.452Z,191.25
2019-03-17T10:28:46.417Z,185.63
2019-03-17T10:29:46.368Z,185.63
2019-03-17T10:30:46.326Z,180.00
2019-03-17T10:31:46.290Z,180.00
2019-03-17T10:32:46.257Z,180.00
2019-03-17T10:33:46.206Z,174.38
2019-03-17T10:34:46.216Z,180.00
2019-03-17T10:35:46.245Z,174.38
2019-03-17T10:36:46.084Z,180.00
2019-03-17T10:37:46.119Z,180.00
2019-03-17T10:38:46.005Z,180.00
2019-03-17T10:39:46.023Z,180.00
2019-03-17T10:40:47.851Z,180.00
2019-03-17T10:41:45.890Z,180.00
2019-03-17T10:42:45.848Z,180.00
2019-03-17T10:43:45.805Z,180.00
2019-03-17T10:44:45.763Z,180.00
2019-03-17T10:45:45.720Z,180.00
2019-03-17T10:46:45.679Z,180.00
2019-03-17T10:47:45.643Z,180.00
2019-03-17T10:48:45.604Z,180.00
2019-03-17T10:49:45.569Z,174.38
2019-03-17T10:50:49.879Z,168.75
2019-03-17T10:51:45.483Z,163.13
2019-03-17T10:52:45.442Z,163.13
2019-03-17T10:53:45.397Z,163.13
2019-03-17T10:54:45.372Z,157.50
2019-03-17T10:55:45.323Z,157.50
2019-03-17T10:56:45.282Z,174.38
2019-03-17T10:57:45.239Z,174.38
2019-03-17T10:58:45.199Z,168.75
2019-03-17T10:59:45.160Z,191.25
2019-03-17T11:00:45.123Z,168.75
2019-03-17T11:01:45.085Z,236.25
2019-03-17T11:02:45.045Z,163.13
2019-03-17T11:03:45.006Z,241.88
2019-03-17T11:04:44.960Z,213.75
2019-03-17T11:05:44.922Z,258.75
2019-03-17T11:06:44.881Z,185.63
2019-03-17T11:07:44.842Z,241.88
2019-03-17T11:08:44.808Z,230.63
2019-03-17T11:09:44.765Z,208.13
2019-03-17T11:10:44.723Z,270.00
2019-03-17T11:11:44.686Z,202.50
2019-03-17T11:12:44.651Z,202.50
2019-03-17T11:13:44.605Z,151.88
2019-03-17T11:14:44.567Z,135.00
2019-03-17T11:15:44.530Z,123.75
2019-03-17T11:16:44.482Z,106.88
2019-03-17T11:17:44.446Z,95.63
2019-03-17T11:18:44.404Z,106.88
2019-03-17T11:19:44.365Z,101.25
2019-03-17T11:20:44.333Z,123.75
2019-03-17T11:21:44.290Z,135.00
2019-03-17T11:22:44.250Z,140.63
2019-03-17T11:23:44.210Z,140.63
2019-03-17T11:24:44.166Z,140.63
2019-03-17T11:25:44.130Z,146.25
2019-03-17T11:26:44.089Z,151.88
2019-03-17T11:27:44.055Z,157.50
2019-03-17T11:28:44.005Z,151.88
2019-03-17T11:29:43.966Z,129.38
2019-03-17T11:30:43.926Z,95.63
2019-03-17T11:31:43.883Z,106.88
2019-03-17T11:32:43.852Z,106.88
2019-03-17T11:33:43.807Z,101.25
2019-03-17T11:34:43.767Z,84.38
2019-03-17T11:35:43.730Z,106.88
2019-03-17T11:36:43.686Z,140.63
2019-03-17T11:37:43.647Z,151.88
2019-03-17T11:38:43.603Z,140.63
2019-03-17T11:39:43.565Z,135.00
2019-03-17T11:40:43.531Z,135.00
2019-03-17T11:41:43.483Z,140.63
2019-03-17T11:42:43.442Z,146.25
2019-03-17T11:43:43.399Z,146.25
2019-03-17T11:44:43.364Z,196.88
2019-03-17T11:45:43.321Z,146.25
2019-03-17T11:46:43.282Z,146.25
2019-03-17T11:47:43.242Z,208.13
2019-03-17T11:48:43.197Z,241.88
2019-03-17T11:49:45.932Z,241.88
2019-03-17T11:50:43.115Z,241.88
2019-03-17T11:51:43.080Z,241.88
2019-03-17T11:52:43.041Z,241.88
2019-03-17T11:53:42.995Z,247.50
2019-03-17T11:54:42.957Z,253.13
2019-03-17T11:55:42.915Z,157.50
2019-03-17T11:56:42.868Z,236.25
2019-03-17T11:57:42.831Z,151.88
2019-03-17T11:58:42.795Z,174.38
2019-03-17T11:59:42.756Z,208.13
2019-03-17T12:00:42.707Z,236.25
2019-03-17T12:01:42.672Z,157.50
2019-03-17T12:02:42.631Z,191.25
2019-03-17T12:03:42.586Z,191.25
2019-03-17T12:04:42.552Z,264.38
2019-03-17T12:05:42.508Z,258.75
2019-03-17T12:06:42.473Z,258.75
2019-03-17T12:07:42.430Z,253.13
2019-03-17T12:08:42.383Z,253.13
2019-03-17T12:09:50.051Z,247.50
2019-03-17T12:10:42.340Z,236.25
2019-03-17T12:11:42.289Z,236.25
2019-03-17T12:12:42.229Z,236.25
2019-03-17T12:13:42.251Z,236.25
2019-03-17T12:14:42.158Z,230.63
2019-03-17T12:15:43.621Z,230.63
2019-03-17T12:16:42.083Z,236.25
2019-03-17T12:17:42.029Z,230.63
2019-03-17T12:18:42.006Z,230.63
2019-03-17T12:19:41.967Z,236.25
2019-03-17T12:20:42.189Z,230.63
2019-03-17T12:21:41.881Z,230.63
2019-03-17T12:22:41.831Z,236.25
2019-03-17T12:23:41.928Z,230.63
2019-03-17T12:24:42.198Z,230.63
2019-03-17T12:25:41.730Z,230.63
2019-03-17T12:26:41.750Z,230.63
2019-03-17T12:27:44.345Z,230.63
2019-03-17T12:29:41.796Z,230.63
2019-03-17T12:30:41.834Z,236.25
2019-03-17T12:35:51.243Z,247.50
2019-03-17T12:36:45.817Z,253.13
2019-03-17T12:37:41.646Z,253.13
2019-03-17T12:38:55.375Z,253.13
2019-03-17T12:40:01.832Z,253.13
2019-03-17T12:40:48.338Z,253.13
2019-03-17T12:41:41.199Z,253.13
2019-03-17T12:42:41.771Z,247.50
2019-03-17T12:43:41.036Z,253.13
2019-03-17T12:44:41.872Z,247.50
2019-03-17T12:46:42.338Z,253.13
2019-03-17T12:47:42.793Z,258.75
2019-03-17T12:51:45.485Z,151.88
2019-03-17T12:52:41.471Z,140.63
2019-03-17T12:53:41.449Z,135.00
2019-03-17T12:54:40.598Z,140.63
2019-03-17T12:55:41.441Z,135.00
2019-03-17T12:56:40.583Z,135.00
2019-03-17T12:57:41.411Z,140.63
2019-03-17T12:58:41.305Z,146.25
2019-03-17T12:59:41.112Z,146.25
2019-03-17T13:00:41.099Z,140.63
2019-03-17T13:01:40.746Z,135.00
2019-03-17T13:02:40.245Z,135.00
2019-03-17T13:03:40.392Z,146.25
2019-03-17T13:04:40.224Z,168.75
2019-03-17T13:05:40.566Z,241.88
2019-03-17T13:06:43.660Z,298.13
2019-03-17T13:07:43.907Z,292.50
2019-03-17T13:08:40.264Z,281.25
2019-03-17T13:09:41.672Z,219.38
2019-03-17T13:10:42.293Z,241.88
2019-03-17T13:11:46.189Z,225.00
2019-03-17T13:12:49.264Z,191.25
2019-03-17T13:13:49.683Z,174.38
2019-03-17T13:14:45.109Z,208.13
2019-03-17T13:15:48.741Z,202.50
2019-03-17T13:16:47.262Z,174.38
2019-03-17T13:17:47.735Z,264.38
2019-03-17T13:18:46.670Z,270.00
2019-03-17T13:19:49.249Z,270.00
2019-03-17T13:20:49.816Z,264.38
2019-03-17T13:21:44.884Z,247.50
2019-03-17T13:22:54.722Z,208.13
2019-03-17T13:23:46.353Z,180.00
2019-03-17T13:24:53.888Z,180.00
2019-03-17T13:25:47.487Z,174.38
2019-03-17T13:26:47.317Z,168.75
2019-03-17T13:27:48.577Z,174.38
2019-03-17T13:36:23.222Z,230.63